Time,TemperatureF,DewpointF,PressureIn,WindDirection,WindDirectionDegrees,WindSpeedMPH,WindSpeedGustMPH,Humidity,HourlyPrecipIn,Conditions,Clouds,dailyrainin,SolarRadiationWatts/m^2,SoftwareType,DateUTC
2013-04-26 00:02:00,27.0,23.0,-100.00,SSW,207,1.0,2.0,85,0.00,,,0.08,0.000000,,2013-04-26 05:02:00,
2013-04-26 00:10:00,27.0,24.0,-100.00,SSW,197,1.0,2.0,88,0.00,,,0.03,0.000000,,2013-04-26 05:10:00,
2013-04-26 00:32:00,27.0,24.0,-100.00,SSW,197,1.0,2.0,88,0.00,,,0.03,0.000000,,2013-04-26 05:32:00,
2013-04-26 00:42:00,27.0,24.0,-100.00,SSW,197,1.0,2.0,88,0.00,,,0.03,0.000000,,2013-04-26 05:42:00,
2013-04-26 00:52:00,27.0,24.0,-100.00,SSW,197,1.0,2.0,88,0.00,,,0.03,0.000000,,2013-04-26 05:52:00,
2013-04-26 01:02:00,27.0,24.0,-100.00,SSW,197,1.0,2.0,88,0.00,,,0.03,0.000000,,2013-04-26 06:02:00,
2013-04-26 01:10:00,27.0,24.0,-100.00,South,176,1.0,2.0,90,0.00,,,-99.99,0.000000,,2013-04-26 06:10:00,
2013-04-26 01:32:00,27.0,24.0,-100.00,South,176,1.0,2.0,90,0.00,,,-99.99,0.000000,,2013-04-26 06:32:00,
2013-04-26 01:42:00,27.0,24.0,-100.00,South,176,1.0,2.0,90,0.00,,,-99.99,0.000000,,2013-04-26 06:42:00,
2013-04-26 01:52:00,27.0,24.0,-100.00,South,176,1.0,2.0,90,0.00,,,-99.99,0.000000,,2013-04-26 06:52:00,
2013-04-26 02:01:00,27.0,24.0,-100.00,South,176,1.0,2.0,90,0.00,,,-99.99,0.000000,,2013-04-26 07:01:00,
2013-04-26 02:10:00,28.0,25.0,-100.00,SW,232,1.0,2.0,90,0.00,,,0.00,0.000000,,2013-04-26 07:10:00,
2013-04-26 02:32:00,28.0,25.0,-100.00,SW,232,1.0,2.0,90,0.00,,,0.00,0.000000,,2013-04-26 07:32:00,
2013-04-26 02:42:00,28.0,25.0,-100.00,SW,232,1.0,2.0,90,0.00,,,0.00,0.000000,,2013-04-26 07:42:00,
2013-04-26 02:52:00,28.0,25.0,-100.00,SW,232,1.0,2.0,90,0.00,,,0.00,0.000000,,2013-04-26 07:52:00,
2013-04-26 03:02:00,28.0,25.0,-100.00,SW,232,1.0,2.0,90,0.00,,,0.00,0.000000,,2013-04-26 08:02:00,
2013-04-26 03:10:00,29.0,26.0,-100.00,SSW,198,1.0,5.0,88,0.00,,,0.00,0.000000,,2013-04-26 08:10:00,
2013-04-26 03:32:00,29.0,26.0,-100.00,SSW,198,1.0,5.0,88,0.00,,,0.00,0.000000,,2013-04-26 08:32:00,
2013-04-26 03:42:00,29.0,26.0,-100.00,SSW,198,1.0,5.0,88,0.00,,,0.00,0.000000,,2013-04-26 08:42:00,
2013-04-26 03:52:00,29.0,26.0,-100.00,SSW,198,1.0,5.0,88,0.00,,,0.00,0.000000,,2013-04-26 08:52:00,
2013-04-26 04:01:00,29.0,26.0,-100.00,SSW,198,1.0,5.0,88,0.00,,,0.00,0.000000,,2013-04-26 09:01:00,
2013-04-26 04:10:00,35.0,26.0,-100.00,SSW,206,4.0,10.0,68,0.00,,,0.00,0.000000,,2013-04-26 09:10:00,
2013-04-26 04:33:00,35.0,26.0,-100.00,SSW,206,4.0,10.0,68,0.00,,,0.00,0.000000,,2013-04-26 09:33:00,
2013-04-26 04:43:00,35.0,26.0,-100.00,SSW,206,4.0,10.0,68,0.00,,,0.00,0.000000,,2013-04-26 09:43:00,
2013-04-26 04:53:00,35.0,26.0,-100.00,SSW,206,4.0,10.0,68,0.00,,,0.00,0.000000,,2013-04-26 09:53:00,
2013-04-26 05:03:00,35.0,26.0,-100.00,SSW,206,4.0,10.0,68,0.00,,,0.00,0.000000,,2013-04-26 10:03:00,
2013-04-26 05:10:00,35.0,26.0,-100.00,ESE,120,2.0,7.0,68,0.00,,,0.00,0.000000,,2013-04-26 10:10:00,
2013-04-26 05:33:00,35.0,26.0,-100.00,ESE,120,2.0,7.0,68,0.00,,,0.00,0.000000,,2013-04-26 10:33:00,
2013-04-26 05:42:00,35.0,26.0,-100.00,ESE,120,2.0,7.0,68,0.00,,,0.00,0.000000,,2013-04-26 10:42:00,
2013-04-26 05:52:00,35.0,26.0,-100.00,ESE,120,2.0,7.0,68,0.00,,,0.00,0.000000,,2013-04-26 10:52:00,
2013-04-26 06:02:00,35.0,26.0,-100.00,ESE,120,2.0,7.0,68,0.00,,,0.00,0.000000,,2013-04-26 11:02:00,
2013-04-26 06:10:00,33.0,31.0,-100.00,South,177,1.0,3.0,94,0.05,,,0.05,0.000000,,2013-04-26 11:10:00,
2013-04-26 06:32:00,33.0,31.0,-100.00,South,177,1.0,3.0,94,0.05,,,0.05,0.000000,,2013-04-26 11:32:00,
2013-04-26 06:42:00,33.0,31.0,-100.00,South,177,1.0,3.0,94,0.05,,,0.05,0.000000,,2013-04-26 11:42:00,
2013-04-26 06:52:00,33.0,31.0,-100.00,South,177,1.0,3.0,94,0.05,,,0.05,0.000000,,2013-04-26 11:52:00,
2013-04-26 07:01:00,33.0,31.0,-100.00,South,177,1.0,3.0,94,0.05,,,0.05,0.000000,,2013-04-26 12:01:00,
2013-04-26 07:10:00,33.0,32.0,-100.00,East,97,3.0,7.0,98,0.01,,,-99.99,9.000000,,2013-04-26 12:10:00,
2013-04-26 07:32:00,33.0,32.0,-100.00,East,97,3.0,7.0,98,0.01,,,-99.99,9.000000,,2013-04-26 12:32:00,
2013-04-26 07:42:00,33.0,32.0,-100.00,East,97,3.0,7.0,98,0.01,,,-99.99,9.000000,,2013-04-26 12:42:00,
2013-04-26 07:52:00,33.0,32.0,-100.00,East,97,3.0,7.0,98,0.01,,,-99.99,9.000000,,2013-04-26 12:52:00,
2013-04-26 08:01:00,33.0,32.0,-100.00,East,97,3.0,7.0,98,0.01,,,-99.99,9.000000,,2013-04-26 13:01:00,
2013-04-26 08:10:00,36.0,35.0,-100.00,SE,142,4.0,10.0,95,0.01,,,0.07,51.000000,,2013-04-26 13:10:00,
2013-04-26 08:32:00,36.0,35.0,-100.00,SE,142,4.0,10.0,95,0.01,,,0.07,51.000000,,2013-04-26 13:32:00,
2013-04-26 08:42:00,36.0,35.0,-100.00,SE,142,4.0,10.0,95,0.01,,,0.07,51.000000,,2013-04-26 13:42:00,
2013-04-26 08:52:00,36.0,35.0,-100.00,SE,142,4.0,10.0,95,0.01,,,0.07,51.000000,,2013-04-26 13:52:00,
2013-04-26 09:01:00,36.0,35.0,-100.00,SE,142,4.0,10.0,95,0.01,,,0.07,51.000000,,2013-04-26 14:01:00,
2013-04-26 09:10:00,42.0,36.0,-100.00,South,174,7.0,14.0,78,0.00,,,0.07,264.000000,,2013-04-26 14:10:00,
2013-04-26 09:42:00,42.0,36.0,-100.00,South,174,7.0,14.0,78,0.00,,,0.07,264.000000,,2013-04-26 14:42:00,
2013-04-26 09:52:00,42.0,36.0,-100.00,South,174,7.0,14.0,78,0.00,,,0.07,264.000000,,2013-04-26 14:52:00,
2013-04-26 10:01:00,42.0,36.0,-100.00,South,174,7.0,14.0,78,0.00,,,0.07,264.000000,,2013-04-26 15:01:00,
2013-04-26 10:10:00,49.0,36.0,-100.00,South,186,6.0,16.0,60,0.00,,,-99.99,451.000000,,2013-04-26 15:10:00,
2013-04-26 10:33:00,49.0,36.0,-100.00,South,186,6.0,16.0,60,0.00,,,-99.99,451.000000,,2013-04-26 15:33:00,
2013-04-26 10:43:00,49.0,36.0,-100.00,South,186,6.0,16.0,60,0.00,,,-99.99,451.000000,,2013-04-26 15:43:00,
2013-04-26 10:53:00,49.0,36.0,-100.00,South,186,6.0,16.0,60,0.00,,,-99.99,451.000000,,2013-04-26 15:53:00,
2013-04-26 11:03:00,49.0,36.0,-100.00,South,186,6.0,16.0,60,0.00,,,-99.99,451.000000,,2013-04-26 16:03:00,
2013-04-26 11:10:00,55.0,36.0,-100.00,SSW,192,7.0,13.0,49,0.00,,,0.07,685.000000,,2013-04-26 16:10:00,
2013-04-26 11:33:00,55.0,36.0,-100.00,SSW,192,7.0,13.0,49,0.00,,,0.07,685.000000,,2013-04-26 16:33:00,
2013-04-26 11:42:00,55.0,36.0,-100.00,SSW,192,7.0,13.0,49,0.00,,,0.07,685.000000,,2013-04-26 16:42:00,
2013-04-26 11:53:00,55.0,36.0,-100.00,SSW,192,7.0,13.0,49,0.00,,,0.07,685.000000,,2013-04-26 16:53:00,
2013-04-26 12:02:00,55.0,36.0,-100.00,SSW,192,7.0,13.0,49,0.00,,,0.07,685.000000,,2013-04-26 17:02:00,
2013-04-26 12:10:00,58.0,33.0,-100.00,SW,226,6.0,17.0,39,0.00,,,0.07,782.000000,,2013-04-26 17:10:00,
2013-04-26 12:42:00,58.0,33.0,-100.00,SW,226,6.0,17.0,39,0.00,,,0.07,782.000000,,2013-04-26 17:42:00,
2013-04-26 12:52:00,58.0,33.0,-100.00,SW,226,6.0,17.0,39,0.00,,,0.07,782.000000,,2013-04-26 17:52:00,
2013-04-26 13:02:00,58.0,33.0,-100.00,SW,226,6.0,17.0,39,0.00,,,0.07,782.000000,,2013-04-26 18:02:00,
2013-04-26 13:10:00,60.0,33.0,-100.00,SW,217,7.0,17.0,36,0.00,,,0.07,806.000000,,2013-04-26 18:10:00,
2013-04-26 13:33:00,60.0,33.0,-100.00,SW,217,7.0,17.0,36,0.00,,,0.07,806.000000,,2013-04-26 18:33:00,
2013-04-26 13:42:00,60.0,33.0,-100.00,SW,217,7.0,17.0,36,0.00,,,0.07,806.000000,,2013-04-26 18:42:00,
2013-04-26 13:52:00,60.0,33.0,-100.00,SW,217,7.0,17.0,36,0.00,,,0.07,806.000000,,2013-04-26 18:52:00,
2013-04-26 14:01:00,60.0,33.0,-100.00,SW,217,7.0,17.0,36,0.00,,,0.07,806.000000,,2013-04-26 19:01:00,
2013-04-26 14:10:00,61.0,35.0,-100.00,SSW,203,6.0,14.0,37,0.00,,,0.07,563.000000,,2013-04-26 19:10:00,
2013-04-26 14:32:00,61.0,35.0,-100.00,SSW,203,6.0,14.0,37,0.00,,,0.07,563.000000,,2013-04-26 19:32:00,
2013-04-26 14:42:00,61.0,35.0,-100.00,SSW,203,6.0,14.0,37,0.00,,,0.07,563.000000,,2013-04-26 19:42:00,
2013-04-26 14:52:00,61.0,35.0,-100.00,SSW,203,6.0,14.0,37,0.00,,,0.07,563.000000,,2013-04-26 19:52:00,
2013-04-26 15:02:00,61.0,35.0,-100.00,SSW,203,6.0,14.0,37,0.00,,,0.07,563.000000,,2013-04-26 20:02:00,
2013-04-26 15:10:00,63.0,34.0,-100.00,SW,214,7.0,13.0,34,0.00,,,0.07,701.000000,,2013-04-26 20:10:00,
2013-04-26 15:42:00,63.0,34.0,-100.00,SW,214,7.0,13.0,34,0.00,,,0.07,701.000000,,2013-04-26 20:42:00,
2013-04-26 15:52:00,63.0,34.0,-100.00,SW,214,7.0,13.0,34,0.00,,,0.07,701.000000,,2013-04-26 20:52:00,
2013-04-26 16:02:00,63.0,34.0,-100.00,SW,214,7.0,13.0,34,0.00,,,0.07,701.000000,,2013-04-26 21:02:00,
2013-04-26 16:10:00,65.0,35.0,-100.00,West,260,5.0,15.0,33,0.00,,,0.07,624.000000,,2013-04-26 21:10:00,
2013-04-26 16:33:00,65.0,35.0,-100.00,West,260,5.0,15.0,33,0.00,,,0.07,624.000000,,2013-04-26 21:33:00,
2013-04-26 16:42:00,65.0,35.0,-100.00,West,260,5.0,15.0,33,0.00,,,0.07,624.000000,,2013-04-26 21:42:00,
2013-04-26 16:53:00,65.0,35.0,-100.00,West,260,5.0,15.0,33,0.00,,,0.07,624.000000,,2013-04-26 21:53:00,
2013-04-26 17:02:00,65.0,35.0,-100.00,West,260,5.0,15.0,33,0.00,,,0.07,624.000000,,2013-04-26 22:02:00,
2013-04-26 17:10:00,65.0,34.0,-100.00,West,266,6.0,15.0,31,0.00,,,0.07,469.000000,,2013-04-26 22:10:00,
2013-04-26 17:33:00,65.0,34.0,-100.00,West,266,6.0,15.0,31,0.00,,,0.07,469.000000,,2013-04-26 22:33:00,
2013-04-26 17:42:00,65.0,34.0,-100.00,West,266,6.0,15.0,31,0.00,,,0.07,469.000000,,2013-04-26 22:42:00,
2013-04-26 17:52:00,65.0,34.0,-100.00,West,266,6.0,15.0,31,0.00,,,0.07,469.000000,,2013-04-26 22:52:00,
2013-04-26 18:02:00,65.0,34.0,-100.00,West,266,6.0,15.0,31,0.00,,,0.07,469.000000,,2013-04-26 23:02:00,
2013-04-26 18:10:00,65.0,35.0,-100.00,NW,308,5.0,12.0,33,0.00,,,0.07,297.000000,,2013-04-26 23:10:00,
2013-04-26 18:32:00,65.0,35.0,-100.00,NW,308,5.0,12.0,33,0.00,,,0.07,297.000000,,2013-04-26 23:32:00,
2013-04-26 18:42:00,65.0,35.0,-100.00,NW,308,5.0,12.0,33,0.00,,,0.07,297.000000,,2013-04-26 23:42:00,
2013-04-26 18:52:00,65.0,35.0,-100.00,NW,308,5.0,12.0,33,0.00,,,0.07,297.000000,,2013-04-26 23:52:00,
2013-04-26 19:01:00,65.0,35.0,-100.00,NW,308,5.0,12.0,33,0.00,,,0.07,297.000000,,2013-04-27 00:01:00,
2013-04-26 19:10:00,60.0,34.0,-100.00,NNW,337,4.0,9.0,37,0.00,,,0.07,128.000000,,2013-04-27 00:10:00,
2013-04-26 19:32:00,60.0,34.0,-100.00,NNW,337,4.0,9.0,37,0.00,,,0.07,128.000000,,2013-04-27 00:32:00,
2013-04-26 19:42:00,60.0,34.0,-100.00,NNW,337,4.0,9.0,37,0.00,,,0.07,128.000000,,2013-04-27 00:42:00,
2013-04-26 19:52:00,60.0,34.0,-100.00,NNW,337,4.0,9.0,37,0.00,,,0.07,128.000000,,2013-04-27 00:52:00,
2013-04-26 20:01:00,60.0,34.0,-100.00,NNW,337,4.0,9.0,37,0.00,,,0.07,128.000000,,2013-04-27 01:01:00,
2013-04-26 20:10:00,46.0,33.0,-100.00,NNW,343,0.0,6.0,60,0.00,,,0.07,16.000000,,2013-04-27 01:10:00,
2013-04-26 20:42:00,46.0,33.0,-100.00,NNW,343,0.0,6.0,60,0.00,,,0.07,16.000000,,2013-04-27 01:42:00,
2013-04-26 20:52:00,46.0,33.0,-100.00,NNW,343,0.0,6.0,60,0.00,,,0.07,16.000000,,2013-04-27 01:52:00,
2013-04-26 21:01:00,46.0,33.0,-100.00,NNW,343,0.0,6.0,60,0.00,,,0.07,16.000000,,2013-04-27 02:01:00,
2013-04-26 21:10:00,40.0,34.0,-100.00,NW,326,0.0,1.0,78,0.00,,,0.07,0.000000,,2013-04-27 02:10:00,
2013-04-26 21:42:00,40.0,34.0,-100.00,NW,326,0.0,1.0,78,0.00,,,0.07,0.000000,,2013-04-27 02:42:00,
2013-04-26 21:52:00,40.0,34.0,-100.00,NW,326,0.0,1.0,78,0.00,,,0.07,0.000000,,2013-04-27 02:52:00,
2013-04-26 22:02:00,40.0,34.0,-100.00,NW,326,0.0,1.0,78,0.00,,,0.07,0.000000,,2013-04-27 03:02:00,
2013-04-26 22:10:00,36.0,32.0,-100.00,North,5,0.0,2.0,85,0.00,,,0.07,0.000000,,2013-04-27 03:10:00,
2013-04-26 22:43:00,36.0,32.0,-100.00,North,5,0.0,2.0,85,0.00,,,0.07,0.000000,,2013-04-27 03:43:00,
2013-04-26 22:53:00,36.0,32.0,-100.00,North,5,0.0,2.0,85,0.00,,,0.07,0.000000,,2013-04-27 03:53:00,
2013-04-26 23:03:00,36.0,32.0,-100.00,North,5,0.0,2.0,85,0.00,,,0.07,0.000000,,2013-04-27 04:03:00,
2013-04-26 23:10:00,34.0,32.0,-100.00,North,4,0.0,0.0,93,0.00,,,0.07,0.000000,,2013-04-27 04:10:00,
2013-04-26 23:43:00,34.0,32.0,-100.00,North,4,0.0,0.0,93,0.00,,,0.07,0.000000,,2013-04-27 04:43:00,
2013-04-26 23:53:00,34.0,32.0,-100.00,North,4,0.0,0.0,93,0.00,,,0.07,0.000000,,2013-04-27 04:53:00,